Airfield :











YOU CAN JOIN US ON...

 
LOGIN :

Register | Disclaimer

   EN    FR    IT 

 









Legend :    VFR   Marginal VFR   IFR   Intensive IFR   Very Intensive IFR
Visi :
Ceiling :
>= 8 km
>= 3000ft
5 to 8 km
1000 to 3000 ft
1500m to 5 km
500 to 1000 ft
800 to 1500m
200 to 500 ft
< 800m
< 200 ft
Symbols :   Thunderstorms  Fog  Heavy snow  Heavy precipitations  Wind > 20 kt






- Airport Elevation : 8 ft


KOPF - Opa-locka Executive

CURRENT METAR :
  • 260453Z AUTO 10003KT 10SM BKN075 27/23 A2994 RMK AO2 LTG DSNT SE SLP140 T02670228 403440250

EXPIRED METARs :
  • 260353Z AUTO 11005KT 10SM CLR 27/22 A2996 RMK AO2 SLP145 T02670222
  • 260349Z AUTO 10006KT 10SM CLR 27/22 A2996 RMK AO2
  • 260305Z AUTO 14006KT 10SM VCTS CLR 28/24 A2995 RMK AO2 LTG DSNT E AND SE T02780239
  • 260253Z 13005KT 10SM CLR 28/24 A2995 RMK AO2 LTG DSNT E AND SE RAE0157 SLP144 P0000 60002 T02780239 51011
  • 260153Z 14004KT 10SM -RA SCT037 SCT046 BKN085 28/24 A2995 RMK AO2 RAB22 SLP142 P0002 T02780244
  • 260053Z 17008KT 10SM FEW055 29/23 A2993 RMK AO2 SLP136 T02940228

TAF KOPF
Valid from the 26 at 03:00 until the 27 at 00:00 UTC


260301Z 2603/2624 VRB04KT P6SM VCTS SCT030CB BKN060 BKN200
FM260400 VRB04KT P6SM FEW035 SCT200
FM261600 18008KT P6SM FEW030 SCT250
FM261900 16011KT P6SM VCTS SCT030CB BKN100
KZMA FIR / North America



MET'MAP, your aeronautical weather chart ! - Copyright ORBIFLY December 2007 - Disclaimer

ORBIFLY MET'MAP TEAM :

Programming & Development : Alexandra Zaïnal
Original concept : Baudouin d'Aumeries
Technical & hardware support : Manuel Goepfert
Assistance : Marc-Olivier Méhu




SOURCES & CREDITS :

   NOAA       Earth
Advisory